Time;durP1;ratioP1;P1;durP2;ratioP2;P2;SDS_P1;SDS_P2;PMS_P1;PMS_P2;Temp;Humidity;BMP_temperature;BMP_pressure;BME280_temperature;BME280_humidity;BME280_pressure;Samples;Min_cycle;Max_cycle;Signal;HPM_P1;HPM_P2
2022/12/14 00:01:16;;;;;;;20.70;14.90;;;;;;;-5.01;100.00;98681.47;6245530;23;20212;-82
2022/12/14 00:03:44;;;;;;;21.13;15.07;;;;;;;-5.02;100.00;98664.16;6245569;23;20204;-82
2022/12/14 00:06:21;;;;;;;21.00;14.33;;;;;;;-4.91;100.00;98677.03;6245254;23;20208;-81
2022/12/14 00:08:49;;;;;;;23.40;14.70;;;;;;;-4.92;100.00;98675.38;6245899;23;20203;-83
2022/12/14 00:11:18;;;;;;;23.90;15.17;;;;;;;-5.00;100.00;98670.06;6218962;23;20279;-82
2022/12/14 00:13:45;;;;;;;20.37;14.57;;;;;;;-4.94;100.00;98667.69;6245684;23;20291;-82
2022/12/14 00:16:16;;;;;;;22.23;15.30;;;;;;;-4.94;100.00;98662.47;6245287;23;20560;-82
2022/12/14 00:18:43;;;;;;;22.43;14.63;;;;;;;-4.96;100.00;98653.97;6219368;23;20542;-82
2022/12/14 00:21:12;;;;;;;20.67;14.37;;;;;;;-4.89;100.00;98651.56;6222063;23;20283;-82
2022/12/14 00:23:40;;;;;;;21.60;15.37;;;;;;;-4.96;100.00;98653.97;6248531;23;20208;-82
2022/12/14 00:26:27;;;;;;;23.37;14.97;;;;;;;-4.83;100.00;98642.34;6221141;23;20220;-82
2022/12/14 00:28:56;;;;;;;21.53;14.30;;;;;;;-4.82;100.00;98643.97;6221870;23;20212;-82
2022/12/14 00:31:23;;;;;;;23.33;14.97;;;;;;;-4.90;100.00;98649.94;6221483;23;20240;-82
2022/12/14 00:33:51;;;;;;;22.00;14.77;;;;;;;-4.93;100.00;98647.59;6246689;23;20287;-82
2022/12/14 00:36:18;;;;;;;22.97;14.77;;;;;;;-5.04;100.00;98640.78;6221302;23;20227;-82
2022/12/14 00:38:45;;;;;;;23.30;14.97;;;;;;;-4.92;100.00;98642.25;6196326;23;20224;-82
2022/12/14 00:41:12;;;;;;;21.30;13.80;;;;;;;-4.78;100.00;98637.50;6221325;23;20236;-84
2022/12/14 00:43:38;;;;;;;22.50;15.40;;;;;;;-4.79;100.00;98630.63;6246395;23;20203;-81
2022/12/14 00:46:05;;;;;;;23.17;15.40;;;;;;;-4.74;100.00;98636.22;6220150;23;20587;-82
2022/12/14 00:48:32;;;;;;;21.73;14.27;;;;;;;-4.74;100.00;98639.66;6246201;23;20204;-82
2022/12/14 00:50:59;;;;;;;19.33;13.13;;;;;;;-4.81;100.00;98638.63;6246365;23;20216;-83
2022/12/14 00:53:25;;;;;;;23.33;15.50;;;;;;;-4.92;100.00;98644.88;6221256;23;20213;-83
2022/12/14 00:55:52;;;;;;;21.87;15.00;;;;;;;-4.94;100.00;98652.00;6247402;23;20208;-83
2022/12/14 00:58:21;;;;;;;24.80;15.57;;;;;;;-5.03;100.00;98652.06;6247326;23;20272;-84
2022/12/14 01:00:58;;;;;;;23.50;15.40;;;;;;;-5.04;100.00;98645.22;6247632;23;20239;-84
2022/12/14 01:03:24;;;;;;;22.97;14.80;;;;;;;-5.00;100.00;98651.78;6196239;23;20687;-82
2022/12/14 01:05:52;;;;;;;21.83;14.73;;;;;;;-4.93;100.00;98650.22;6221509;23;20208;-82
2022/12/14 01:08:19;;;;;;;20.67;14.30;;;;;;;-4.87;100.00;98660.09;6220480;23;20287;-83
2022/12/14 01:10:45;;;;;;;22.93;14.83;;;;;;;-4.94;100.00;98645.97;6246014;23;20235;-82
2022/12/14 01:13:12;;;;;;;21.03;14.27;;;;;;;-4.95;100.00;98645.16;6247551;23;20212;-82
2022/12/14 01:15:39;;;;;;;22.10;14.97;;;;;;;-4.72;100.00;98629.06;6247842;23;20204;-81
2022/12/14 01:18:05;;;;;;;24.07;14.57;;;;;;;-4.68;100.00;98628.63;6246870;23;20212;-82
2022/12/14 01:20:32;;;;;;;22.00;13.83;;;;;;;-4.71;100.00;98620.28;6247821;23;20213;-82
2022/12/14 01:22:59;;;;;;;19.03;12.63;;;;;;;-4.53;100.00;98615.88;6246113;23;20228;-82
2022/12/14 01:25:26;;;;;;;22.20;14.20;;;;;;;-4.50;100.00;98612.94;6245818;23;20279;-81
2022/12/14 01:27:52;;;;;;;19.27;13.73;;;;;;;-4.46;100.00;98603.84;6220960;23;20215;-82
2022/12/14 01:30:19;;;;;;;20.80;13.77;;;;;;;-4.39;100.00;98620.59;6245458;23;20215;-81
2022/12/14 01:32:46;;;;;;;21.47;14.30;;;;;;;-4.30;100.00;98609.22;6243851;23;20692;-82
2022/12/14 01:35:13;;;;;;;20.90;14.87;;;;;;;-4.26;100.00;98617.59;6244662;23;20216;-82
2022/12/14 01:37:40;;;;;;;20.63;13.83;;;;;;;-4.27;100.00;98618.53;6218786;23;20228;-82
2022/12/14 01:40:07;;;;;;;21.97;14.10;;;;;;;-4.22;100.00;98621.53;6218988;23;20205;-82
2022/12/14 01:42:35;;;;;;;24.00;14.43;;;;;;;-4.10;100.00;98618.53;6245952;23;20279;-82
2022/12/14 01:45:03;;;;;;;20.03;13.30;;;;;;;-4.07;100.00;98618.25;6246249;23;20235;-82
2022/12/14 01:47:39;;;;;;;19.90;13.43;;;;;;;-4.00;100.00;98605.34;6245556;23;20653;-82
2022/12/14 01:50:41;;;;;;;19.83;13.30;;;;;;;-3.85;100.00;98622.16;6203172;23;20209;-83
2022/12/14 01:53:15;;;;;;;20.67;14.03;;;;;;;-3.86;100.00;98623.13;6228304;23;20211;-81
2022/12/14 01:55:44;;;;;;;22.70;14.50;;;;;;;-3.76;100.00;98618.63;6217753;23;20661;-83
2022/12/14 01:58:21;;;;;;;22.10;14.47;;;;;;;-3.83;100.00;98614.97;6219475;23;20255;-82
2022/12/14 02:00:48;;;;;;;19.93;13.93;;;;;;;-3.73;100.00;98615.69;6219260;23;20259;-82
2022/12/14 02:03:17;;;;;;;20.10;13.83;;;;;;;-3.81;100.00;98607.78;6245988;23;20239;-83
2022/12/14 02:05:47;;;;;;;20.10;14.83;;;;;;;-3.70;100.00;98606.72;6245737;23;20243;-82
2022/12/14 02:08:15;;;;;;;22.37;14.57;;;;;;;-3.71;100.00;98605.88;6218844;23;20740;-81
2022/12/14 02:10:43;;;;;;;23.73;14.50;;;;;;;-3.59;100.00;98612.50;6213623;23;20213;-82
2022/12/14 02:13:30;;;;;;;20.93;14.03;;;;;;;-3.53;100.00;98607.63;6213955;23;20236;-82
2022/12/14 02:15:57;;;;;;;20.40;14.50;;;;;;;-3.55;100.00;98592.09;6214139;23;20233;-86
2022/12/14 02:18:28;;;;;;;19.03;12.77;;;;;;;-3.51;100.00;98580.31;6214845;23;20209;-83
2022/12/14 02:21:43;;;;;;;20.37;13.90;;;;;;;-3.56;100.00;98567.69;6189158;23;20216;-82
2022/12/14 02:24:27;;;;;;;22.20;14.07;;;;;;;-3.56;100.00;98559.00;6186287;23;20206;-83
2022/12/14 02:27:30;;;;;;;19.87;13.23;;;;;;;-3.61;100.00;98545.56;6213874;23;20263;-83
2022/12/14 02:30:05;;;;;;;21.73;14.27;;;;;;;-3.63;100.00;98548.34;6215396;23;20205;-82
2022/12/14 02:32:32;;;;;;;20.03;14.03;;;;;;;-3.52;100.00;98544.63;6215359;23;20216;-82
2022/12/14 02:35:20;;;;;;;19.77;14.07;;;;;;;-3.53;100.00;98545.59;6213642;23;20244;-81
2022/12/14 02:38:21;;;;;;;18.77;14.03;;;;;;;-3.57;100.00;98539.03;6215242;23;20205;-83
2022/12/14 02:41:10;;;;;;;19.90;13.57;;;;;;;-3.42;100.00;98534.84;6213222;23;20267;-83
2022/12/14 02:44:01;;;;;;;19.40;13.57;;;;;;;-3.45;100.00;98526.50;6213782;23;20205;-82
2022/12/14 02:46:33;;;;;;;22.03;14.13;;;;;;;-3.33;100.00;98527.84;6213395;23;20211;-82
2022/12/14 02:49:09;;;;;;;20.30;14.47;;;;;;;-3.43;100.00;98525.34;6213579;23;20209;-85
2022/12/14 02:51:42;;;;;;;20.87;14.13;;;;;;;-3.42;100.00;98536.66;6164428;23;20666;-82
2022/12/14 02:54:17;;;;;;;20.83;14.17;;;;;;;-3.40;100.00;98532.88;6189396;23;20202;-82
2022/12/14 02:56:50;;;;;;;21.10;14.07;;;;;;;-3.36;100.00;98528.97;6215836;23;20668;-81
2022/12/14 02:59:17;;;;;;;22.47;14.13;;;;;;;-3.23;100.00;98518.06;6214192;23;20221;-81
2022/12/14 03:01:45;;;;;;;20.23;13.97;;;;;;;-3.20;100.00;98522.97;6188687;23;20275;-82
2022/12/14 03:04:13;;;;;;;19.33;14.00;;;;;;;-3.20;100.00;98523.78;6198453;23;20213;-82
2022/12/14 03:06:50;;;;;;;20.77;14.33;;;;;;;-3.13;100.00;98527.41;6191417;23;20221;-82
2022/12/14 03:09:17;;;;;;;21.67;14.60;;;;;;;-3.13;100.00;98521.38;6217130;23;20209;-81
2022/12/14 03:11:55;;;;;;;20.80;15.07;;;;;;;-3.15;100.00;98518.91;6240576;23;20243;-82
2022/12/14 03:14:35;;;;;;;21.00;15.40;;;;;;;-3.21;100.00;98518.69;6248249;23;20258;-82
2022/12/14 03:17:20;;;;;;;21.90;14.87;;;;;;;-3.00;100.00;98510.41;6196748;23;20381;-82
2022/12/14 03:19:52;;;;;;;24.83;15.17;;;;;;;-3.01;100.00;98501.72;6219391;23;20212;-81
2022/12/14 03:22:24;;;;;;;21.43;14.10;;;;;;;-2.99;100.00;98496.34;6243610;23;20209;-82
2022/12/14 03:24:57;;;;;;;21.83;14.67;;;;;;;-3.00;100.00;98486.84;6218809;23;20212;-85
2022/12/14 03:27:30;;;;;;;22.73;15.30;;;;;;;-2.95;100.00;98497.66;6243477;23;20208;-82
2022/12/14 03:29:59;;;;;;;20.73;14.50;;;;;;;-3.03;100.00;98487.97;6218593;23;20212;-82
2022/12/14 03:32:28;;;;;;;24.93;15.57;;;;;;;-2.93;100.00;98499.13;6178578;23;20287;-83
2022/12/14 03:35:05;;;;;;;21.30;14.70;;;;;;;-2.91;100.00;98501.59;6219014;23;20208;-83
2022/12/14 03:37:38;;;;;;;20.87;14.83;;;;;;;-2.85;100.00;98501.78;6243736;23;20643;-83
2022/12/14 03:40:09;;;;;;;22.97;14.87;;;;;;;-2.86;100.00;98491.44;6220503;23;20673;-81
2022/12/14 03:42:59;;;;;;;23.97;15.63;;;;;;;-2.88;100.00;98486.34;6247764;23;20530;-81
2022/12/14 03:45:34;;;;;;;24.10;15.23;;;;;;;-2.79;100.00;98472.25;6247342;23;20208;-81
2022/12/14 03:48:09;;;;;;;23.47;15.90;;;;;;;-2.86;100.00;98478.34;6244880;23;20200;-81
2022/12/14 03:50:52;;;;;;;23.27;16.13;;;;;;;-2.81;100.00;98476.88;6220599;23;20267;-81
2022/12/14 03:53:57;;;;;;;24.90;16.63;;;;;;;-2.73;100.00;98461.13;6221379;23;20228;-81
2022/12/14 03:56:40;;;;;;;23.73;16.27;;;;;;;-2.79;100.00;98459.16;6220057;23;20295;-80
2022/12/14 03:59:23;;;;;;;22.63;15.43;;;;;;;-2.69;100.00;98454.56;6220540;23;20216;-82
2022/12/14 04:02:15;;;;;;;24.57;15.30;;;;;;;-2.80;100.00;98447.03;6244834;23;20215;-81
2022/12/14 04:04:56;;;;;;;23.53;15.97;;;;;;;-2.77;100.00;98446.72;6219132;23;20213;-82
2022/12/14 04:07:29;;;;;;;22.73;16.20;;;;;;;-2.80;100.00;98433.13;6248306;23;20208;-81
2022/12/14 04:18:55;;;;;;;22.47;15.63;;;;;;;-2.79;100.00;98437.34;6222190;23;20200;-81
2022/12/14 04:18:58;;;;;;;24.37;15.37;;;;;;;-2.68;100.00;98401.16;6244955;23;20234;-81
2022/12/14 04:21:38;;;;;;;24.93;15.73;;;;;;;-2.68;100.00;98406.41;6196101;23;20671;-81
2022/12/14 04:27:05;;;;;;;22.00;15.57;;;;;;;-2.72;100.00;98396.41;6224752;23;20681;-81
2022/12/14 04:32:20;;;;;;;22.67;16.33;;;;;;;-2.60;100.00;98409.97;6247038;23;20208;-81
2022/12/14 04:34:50;;;;;;;25.43;16.17;;;;;;;-2.69;100.00;98412.63;6245840;23;20204;-81
2022/12/14 04:37:19;;;;;;;23.20;16.67;;;;;;;-2.59;100.00;98415.06;6220656;23;20212;-79
2022/12/14 04:39:51;;;;;;;23.03;15.77;;;;;;;-2.58;100.00;98405.41;6221160;23;20279;-79
2022/12/14 04:42:22;;;;;;;24.37;16.80;;;;;;;-2.54;100.00;98398.84;6220569;23;20677;-79
2022/12/14 04:44:52;;;;;;;23.97;16.77;;;;;;;-2.48;100.00;98400.81;6172064;23;20216;-78
2022/12/14 04:47:22;;;;;;;23.97;15.93;;;;;;;-2.45;100.00;98382.09;6221228;23;20224;-79
2022/12/14 04:50:09;;;;;;;23.97;16.73;;;;;;;-2.38;100.00;98388.34;6247847;23;20239;-80
2022/12/14 04:52:43;;;;;;;24.47;16.17;;;;;;;-2.43;100.00;98386.22;6221188;23;20204;-79
2022/12/14 04:55:49;;;;;;;26.20;17.07;;;;;;;-2.30;100.00;98390.94;6220343;23;20680;-79
2022/12/14 04:58:24;;;;;;;25.60;17.00;;;;;;;-2.41;100.00;98380.78;6183444;23;20241;-79
2022/12/14 05:01:15;;;;;;;25.93;17.10;;;;;;;-2.33;100.00;98396.50;6237882;23;20523;-78
2022/12/14 05:04:17;;;;;;;22.83;16.53;;;;;;;-2.27;100.00;98390.56;6247013;23;20267;-79
2022/12/14 05:06:52;;;;;;;26.60;17.03;;;;;;;-2.23;100.00;98374.31;6248934;23;20731;-79
2022/12/14 05:09:32;;;;;;;27.37;17.37;;;;;;;-2.29;100.00;98363.72;6223332;23;20680;-80
2022/12/14 05:12:11;;;;;;;24.10;16.77;;;;;;;-2.30;100.00;98357.66;6249858;23;20696;-80
2022/12/14 05:14:51;;;;;;;24.63;16.67;;;;;;;-2.19;100.00;98353.03;6223019;23;20201;-79
2022/12/14 05:17:18;;;;;;;23.53;15.23;;;;;;;-2.14;100.00;98334.94;6223857;23;20209;-79
2022/12/14 05:19:48;;;;;;;27.03;18.27;;;;;;;-2.14;100.00;98320.00;6248330;23;20250;-79
2022/12/14 05:22:16;;;;;;;23.87;16.57;;;;;;;-2.22;100.00;98305.13;6220681;23;20207;-79
2022/12/14 05:24:42;;;;;;;25.93;17.50;;;;;;;-2.18;100.00;98302.97;6248727;23;20615;-79
2022/12/14 05:27:09;;;;;;;25.27;17.37;;;;;;;-2.11;100.00;98311.81;6223194;23;20212;-78
2022/12/14 05:29:36;;;;;;;26.30;16.80;;;;;;;-2.00;100.00;98321.09;6247127;23;20284;-79
2022/12/14 05:32:03;;;;;;;25.30;16.53;;;;;;;-2.06;100.00;98320.00;6221419;23;20542;-79
2022/12/14 05:34:30;;;;;;;25.33;16.73;;;;;;;-2.08;100.00;98318.50;6248870;23;20216;-78
2022/12/14 05:36:57;;;;;;;23.37;16.20;;;;;;;-2.09;100.00;98320.31;6222238;23;20232;-79
2022/12/14 05:39:23;;;;;;;24.70;16.23;;;;;;;-2.08;100.00;98336.88;6223286;23;20229;-79
2022/12/14 05:41:52;;;;;;;23.13;16.07;;;;;;;-2.12;100.00;98341.66;6222736;23;20280;-80
2022/12/14 05:44:19;;;;;;;24.73;16.83;;;;;;;-2.15;100.00;98334.13;6223077;23;20205;-79
2022/12/14 05:46:46;;;;;;;25.10;17.23;;;;;;;-2.05;100.00;98337.34;6223425;23;20291;-79
2022/12/14 05:49:12;;;;;;;23.67;16.43;;;;;;;-2.09;100.00;98336.06;6249520;23;20222;-79
2022/12/14 05:51:39;;;;;;;22.00;15.73;;;;;;;-2.05;100.00;98337.34;6188134;23;20301;-79
2022/12/14 05:54:06;;;;;;;25.93;17.57;;;;;;;-2.08;100.00;98334.25;6228408;23;20247;-79
2022/12/14 05:56:32;;;;;;;28.87;17.33;;;;;;;-2.10;100.00;98331.78;6197985;23;20613;-79
2022/12/14 05:58:59;;;;;;;24.77;17.03;;;;;;;-2.04;100.00;98332.91;6247676;23;20287;-81
2022/12/14 06:01:26;;;;;;;27.43;17.30;;;;;;;-2.09;100.00;98338.69;6248387;23;20233;-79
2022/12/14 06:03:53;;;;;;;26.10;17.30;;;;;;;-2.09;100.00;98343.94;6247808;23;20208;-79
2022/12/14 06:06:20;;;;;;;26.13;16.77;;;;;;;-1.97;100.00;98345.22;6248152;23;20209;-79
2022/12/14 06:08:47;;;;;;;24.90;16.83;;;;;;;-2.05;100.00;98336.56;6246905;23;20216;-79
2022/12/14 06:11:16;;;;;;;25.20;16.50;;;;;;;-1.98;100.00;98332.25;6180636;23;20228;-80
2022/12/14 06:13:43;;;;;;;26.27;17.40;;;;;;;-1.94;100.00;98344.84;6218093;23;20238;-79
2022/12/14 06:16:20;;;;;;;25.37;17.53;;;;;;;-1.98;100.00;98340.13;6202277;23;20281;-79
2022/12/14 06:18:48;;;;;;;24.40;17.60;;;;;;;-2.01;100.00;98343.91;6216559;23;20207;-79
2022/12/14 06:21:17;;;;;;;25.03;17.33;;;;;;;-1.98;100.00;98340.94;6216770;23;20286;-79
2022/12/14 06:23:44;;;;;;;24.37;16.30;;;;;;;-1.99;100.00;98330.59;6242002;23;20297;-79
2022/12/14 06:26:11;;;;;;;26.43;16.73;;;;;;;-1.89;100.00;98337.28;6217163;23;20259;-79
2022/12/14 06:28:38;;;;;;;26.30;14.73;;;;;;;-1.86;100.00;98329.06;6217725;23;20288;-79
2022/12/14 06:31:05;;;;;;;26.13;16.37;;;;;;;-1.88;100.00;98322.34;6218125;23;20205;-80
2022/12/14 06:33:33;;;;;;;25.27;16.57;;;;;;;-1.93;100.00;98329.94;6216593;23;20681;-79
2022/12/14 06:36:01;;;;;;;24.63;16.10;;;;;;;-1.91;100.00;98334.00;6217243;23;20232;-80
2022/12/14 06:38:28;;;;;;;22.50;15.90;;;;;;;-1.98;100.00;98334.88;6217762;23;20308;-79
2022/12/14 06:40:55;;;;;;;23.23;15.43;;;;;;;-1.87;100.00;98348.41;6241685;23;20292;-80
2022/12/14 06:43:25;;;;;;;24.60;16.03;;;;;;;-1.89;100.00;98329.41;6216017;23;20233;-81
2022/12/14 06:45:52;;;;;;;26.07;16.70;;;;;;;-1.90;100.00;98322.53;6218187;23;20204;-80
2022/12/14 06:48:19;;;;;;;24.87;17.07;;;;;;;-1.84;100.00;98328.91;6215248;23;20283;-79
2022/12/14 06:50:46;;;;;;;24.87;15.77;;;;;;;-1.96;100.00;98338.16;6216113;23;20209;-79
2022/12/14 06:53:13;;;;;;;24.93;16.10;;;;;;;-1.79;100.00;98330.03;6217476;23;20208;-79
2022/12/14 06:55:39;;;;;;;23.70;15.73;;;;;;;-1.80;100.00;98325.75;6216760;23;20209;-79
2022/12/14 06:58:10;;;;;;;22.07;14.77;;;;;;;-1.79;100.00;98316.88;6215171;23;20615;-78
2022/12/14 07:00:36;;;;;;;24.10;15.70;;;;;;;-1.81;100.00;98334.59;6216286;23;20214;-80
2022/12/14 07:03:03;;;;;;;23.73;14.77;;;;;;;-1.71;100.00;98336.19;6218398;23;20217;-78
2022/12/14 07:05:30;;;;;;;24.10;15.93;;;;;;;-1.77;100.00;98316.69;6218092;23;20212;-79
2022/12/14 07:07:57;;;;;;;22.80;15.53;;;;;;;-1.80;100.00;98282.91;6192934;23;20185;-79
2022/12/14 07:10:23;;;;;;;23.37;16.33;;;;;;;-1.80;100.00;98280.28;6190758;23;20210;-79
2022/12/14 07:12:50;;;;;;;23.60;15.80;;;;;;;-1.68;100.00;98301.72;6218901;23;20201;-79
2022/12/14 07:15:17;;;;;;;22.27;15.33;;;;;;;-1.80;100.00;98307.38;6218031;23;20229;-79
2022/12/14 07:17:43;;;;;;;21.80;14.90;;;;;;;-1.69;100.00;98311.41;6218252;23;20292;-80
2022/12/14 07:20:10;;;;;;;26.00;15.83;;;;;;;-1.71;100.00;98312.56;6217533;23;20202;-78
2022/12/14 07:22:37;;;;;;;23.97;16.23;;;;;;;-1.65;100.00;98310.06;6216163;23;20543;-78
2022/12/14 07:25:05;;;;;;;23.63;15.23;;;;;;;-1.65;100.00;98293.50;6216215;23;20229;-79
2022/12/14 07:27:31;;;;;;;25.10;15.17;;;;;;;-1.62;100.00;98278.19;6217622;23;20229;-79
2022/12/14 07:29:58;;;;;;;22.33;14.97;;;;;;;-1.55;100.00;98288.84;6215689;23;20240;-78
2022/12/14 07:32:25;;;;;;;22.33;14.17;;;;;;;-1.56;100.00;98279.31;6164752;23;20280;-78
2022/12/14 07:34:51;;;;;;;22.43;15.53;;;;;;;-1.60;100.00;98275.41;6176630;23;20272;-79
2022/12/14 07:37:19;;;;;;;22.17;15.70;;;;;;;-1.53;100.00;98289.47;6217276;23;20745;-80
2022/12/14 07:39:45;;;;;;;22.30;15.30;;;;;;;-1.51;100.00;98290.94;6219002;23;20201;-79
2022/12/14 07:42:12;;;;;;;23.37;16.30;;;;;;;-1.55;100.00;98305.41;6176856;23;20210;-82
2022/12/14 07:44:45;;;;;;;23.30;16.17;;;;;;;-1.31;100.00;98299.16;6169199;23;20209;-81
2022/12/14 07:47:12;;;;;;;23.83;16.90;;;;;;;-1.38;100.00;98291.16;6220887;23;20654;-82
2022/12/14 07:49:42;;;;;;;24.67;16.97;;;;;;;-1.32;100.00;98297.53;6218837;23;20205;-81
2022/12/14 07:52:09;;;;;;;24.57;16.23;;;;;;;-1.18;100.00;98295.94;6191042;23;20297;-81
2022/12/14 07:54:36;;;;;;;25.47;17.00;;;;;;;-1.18;100.00;98296.75;6192679;23;20208;-81
2022/12/14 07:57:02;;;;;;;24.90;17.63;;;;;;;-1.13;100.00;98299.66;6167663;23;20280;-79
2022/12/14 07:59:29;;;;;;;24.23;16.70;;;;;;;-1.07;100.00;98293.66;6216596;23;20283;-79
2022/12/14 08:01:56;;;;;;;25.83;17.27;;;;;;;-0.94;100.00;98296.53;6186545;23;20238;-79
2022/12/14 08:04:23;;;;;;;26.87;17.43;;;;;;;-0.88;100.00;98295.78;6216221;23;20588;-79
2022/12/14 08:06:49;;;;;;;24.70;17.13;;;;;;;-0.82;100.00;98304.78;6192425;23;20277;-79
2022/12/14 08:09:16;;;;;;;24.90;17.33;;;;;;;-0.66;100.00;98294.13;6192465;23;20285;-79
2022/12/14 08:11:43;;;;;;;26.80;17.53;;;;;;;-0.57;100.00;98290.41;6212576;23;20657;-79
2022/12/14 08:14:18;;;;;;;25.70;17.03;;;;;;;-0.59;100.00;98295.00;6182795;23;20209;-79
2022/12/14 08:16:46;;;;;;;27.83;17.40;;;;;;;-0.35;100.00;98282.56;6171801;23;20216;-79
2022/12/14 08:19:13;;;;;;;24.90;16.67;;;;;;;-0.38;100.00;98282.94;6221416;23;20208;-79
2022/12/14 08:21:40;;;;;;;29.83;19.70;;;;;;;-0.43;100.00;98277.41;6245824;23;20266;-80
2022/12/14 08:24:09;;;;;;;26.27;18.17;;;;;;;-0.32;100.00;98277.75;6245869;23;20205;-78
2022/12/14 08:26:36;;;;;;;25.47;17.83;;;;;;;-0.21;100.00;98289.63;6194293;23;20213;-79
2022/12/14 08:29:03;;;;;;;26.47;17.77;;;;;;;-0.16;100.00;98284.63;6220723;23;20625;-80
2022/12/14 08:31:31;;;;;;;25.00;17.10;;;;;;;-0.04;100.00;98283.16;6221725;23;20738;-80
2022/12/14 08:33:59;;;;;;;24.20;17.20;;;;;;;-0.20;100.00;98289.47;6196318;23;20215;-79
2022/12/14 08:36:32;;;;;;;22.63;16.70;;;;;;;-0.12;100.00;98286.72;6245888;23;20213;-79
2022/12/14 08:39:02;;;;;;;26.00;16.97;;;;;;;0.09;100.00;98293.03;6221150;23;20240;-79
2022/12/14 08:41:29;;;;;;;25.03;17.33;;;;;;;0.06;100.00;98296.03;6248374;23;20180;-79
2022/12/14 08:43:57;;;;;;;24.07;16.80;;;;;;;0.20;100.00;98303.06;6249063;23;20230;-79
2022/12/14 08:46:26;;;;;;;22.77;16.53;;;;;;;0.19;100.00;98299.63;6196729;23;20208;-78
2022/12/14 08:48:53;;;;;;;24.33;16.50;;;;;;;0.14;100.00;98294.09;6220054;23;20209;-78
2022/12/14 08:51:22;;;;;;;24.17;17.30;;;;;;;0.07;100.00;98297.66;6218639;23;20212;-77
2022/12/14 08:53:49;;;;;;;24.70;17.50;;;;;;;0.23;100.00;98300.09;6246735;23;20239;-78
2022/12/14 08:56:18;;;;;;;25.43;17.63;;;;;;;0.24;100.00;98289.34;6217721;23;20210;-78
2022/12/14 08:58:45;;;;;;;25.23;18.87;;;;;;;0.40;100.00;98304.13;6220175;23;20292;-78
2022/12/14 09:01:18;;;;;;;25.37;17.30;;;;;;;0.40;100.00;98297.03;6219413;23;20214;-78
2022/12/14 09:03:47;;;;;;;24.63;17.17;;;;;;;0.50;100.00;98290.63;6220291;23;20211;-78
2022/12/14 09:06:26;;;;;;;25.93;17.97;;;;;;;0.44;100.00;98285.09;6219165;23;20284;-78
2022/12/14 09:08:54;;;;;;;23.77;18.00;;;;;;;0.49;100.00;98284.53;6220608;23;20215;-78
2022/12/14 09:11:21;;;;;;;24.13;16.73;;;;;;;0.43;100.00;98277.38;6245804;23;20287;-78
2022/12/14 09:13:48;;;;;;;24.27;17.67;;;;;;;0.52;100.00;98288.59;6218376;23;20211;-78
2022/12/14 09:16:19;;;;;;;27.20;20.27;;;;;;;0.44;100.00;98279.03;6245342;23;20208;-77
2022/12/14 09:18:47;;;;;;;25.67;18.20;;;;;;;0.54;100.00;98274.25;6246484;23;20209;-77
2022/12/14 09:21:14;;;;;;;24.10;16.93;;;;;;;0.67;100.00;98268.28;6246319;23;20559;-78
2022/12/14 09:23:41;;;;;;;28.37;18.37;;;;;;;0.56;100.00;98259.06;6219825;23;20654;-78
2022/12/14 09:26:17;;;;;;;26.03;18.40;;;;;;;0.61;100.00;98261.13;6229662;23;20231;-77
2022/12/14 09:28:46;;;;;;;24.10;17.87;;;;;;;0.54;100.00;98266.34;6223557;23;20208;-77
2022/12/14 09:31:14;;;;;;;24.57;18.17;;;;;;;0.59;100.00;98257.88;6219700;23;20665;-77
2022/12/14 09:33:41;;;;;;;25.40;17.77;;;;;;;0.66;100.00;98254.28;6244669;23;20218;-78
2022/12/14 09:36:14;;;;;;;26.63;19.13;;;;;;;0.68;100.00;98249.66;6245531;23;20205;-78
2022/12/14 09:38:42;;;;;;;24.33;17.87;;;;;;;0.68;100.00;98244.38;6220055;23;20540;-79
2022/12/14 09:41:32;;;;;;;24.33;17.40;;;;;;;0.84;100.00;98252.00;6221817;23;20214;-78
2022/12/14 09:44:24;;;;;;;26.00;17.60;;;;;;;0.77;100.00;98242.41;6244469;23;20673;-78
2022/12/14 09:47:12;;;;;;;24.83;18.17;;;;;;;0.91;100.00;98243.31;6218955;23;20680;-78
2022/12/14 09:49:43;;;;;;;25.80;17.60;;;;;;;0.93;100.00;98236.88;6245645;23;20287;-78
2022/12/14 09:52:17;;;;;;;26.20;18.17;;;;;;;1.07;100.00;98230.69;6244837;23;20201;-78
2022/12/14 09:54:45;;;;;;;26.90;17.90;;;;;;;1.03;100.00;98221.50;6219545;23;20211;-77
2022/12/14 09:57:31;;;;;;;26.83;18.13;;;;;;;0.86;100.00;98207.81;6220334;23;20211;-77
2022/12/14 09:59:58;;;;;;;24.87;17.80;;;;;;;1.10;100.00;98211.00;6219340;23;20208;-78
2022/12/14 10:02:42;;;;;;;22.97;17.43;;;;;;;1.02;100.00;98208.53;6245217;23;20205;-77
2022/12/14 10:05:23;;;;;;;23.43;17.47;;;;;;;1.05;100.00;98208.94;6219778;23;20284;-78
2022/12/14 10:08:07;;;;;;;26.13;18.93;;;;;;;1.18;100.00;98198.47;6219609;23;20208;-78
2022/12/14 10:10:47;;;;;;;25.03;18.47;;;;;;;1.17;100.00;98196.00;6245166;23;20201;-78
2022/12/14 10:13:34;;;;;;;24.67;17.67;;;;;;;1.23;100.00;98189.97;6244520;23;20246;-78
2022/12/14 10:16:06;;;;;;;23.60;18.10;;;;;;;1.22;100.00;98194.41;6234028;23;20614;-77
2022/12/14 10:19:05;;;;;;;25.40;18.90;;;;;;;1.30;100.00;98190.84;6245531;23;20204;-78
2022/12/14 10:21:58;;;;;;;25.23;18.27;;;;;;;1.21;100.00;98190.16;6245573;23;20242;-78
2022/12/14 10:24:42;;;;;;;24.43;17.77;;;;;;;1.13;100.00;98190.31;6234892;23;20259;-77
2022/12/14 10:27:16;;;;;;;26.13;18.73;;;;;;;1.22;100.00;98190.97;6219094;23;20238;-78
2022/12/14 10:29:55;;;;;;;24.90;18.57;;;;;;;1.19;100.00;98172.91;6219670;23;20208;-77
2022/12/14 10:32:34;;;;;;;26.87;19.57;;;;;;;1.36;100.00;98173.38;6218593;23;20207;-77
2022/12/14 10:35:12;;;;;;;25.03;18.17;;;;;;;1.26;100.00;98164.00;6245541;23;20208;-78
2022/12/14 10:37:43;;;;;;;25.37;18.23;;;;;;;1.29;100.00;98162.81;6245572;23;20211;-78
2022/12/14 10:40:22;;;;;;;29.97;22.07;;;;;;;1.43;100.00;98155.75;6244753;23;20281;-78
2022/12/14 10:43:06;;;;;;;26.97;19.93;;;;;;;1.26;100.00;98153.44;6221233;23;20212;-78
2022/12/14 10:45:40;;;;;;;26.67;18.73;;;;;;;1.47;100.00;98143.78;6245610;23;20208;-78
2022/12/14 10:48:45;;;;;;;26.40;19.53;;;;;;;1.64;100.00;98130.03;6243537;23;20228;-77
2022/12/14 10:51:17;;;;;;;27.33;18.97;;;;;;;1.40;100.00;98117.38;6245195;23;20208;-77
2022/12/14 10:53:54;;;;;;;27.60;19.37;;;;;;;1.42;100.00;98109.25;6245569;23;20239;-78
2022/12/14 10:56:27;;;;;;;23.90;17.37;;;;;;;1.43;100.00;98103.78;6218153;23;20266;-78
2022/12/14 10:59:20;;;;;;;24.17;18.10;;;;;;;1.47;100.00;98101.56;6218792;23;20205;-78
2022/12/14 11:02:08;;;;;;;23.37;17.83;;;;;;;1.41;100.00;98102.34;6218706;23;20234;-78
2022/12/14 11:05:11;;;;;;;25.27;18.33;;;;;;;1.66;100.00;98092.88;6234900;23;20649;-78
2022/12/14 11:07:39;;;;;;;25.93;18.07;;;;;;;1.74;100.00;98087.41;6189951;23;20209;-77
2022/12/14 11:10:22;;;;;;;28.07;19.70;;;;;;;1.66;100.00;98077.03;6217745;23;20205;-77
2022/12/14 11:13:05;;;;;;;29.30;20.10;;;;;;;1.77;100.00;98076.47;6245039;23;20676;-78
2022/12/14 11:15:35;;;;;;;27.90;20.13;;;;;;;1.79;100.00;98077.06;6218619;23;20240;-78
2022/12/14 11:18:10;;;;;;;25.53;19.37;;;;;;;1.78;100.00;98075.44;6216536;23;20275;-77
2022/12/14 11:20:58;;;;;;;26.67;19.90;;;;;;;1.97;100.00;98077.28;6245049;23;20294;-78
2022/12/14 11:23:26;;;;;;;27.93;20.33;;;;;;;1.94;100.00;98064.50;6215769;23;20205;-78
2022/12/14 11:25:54;;;;;;;33.80;23.43;;;;;;;2.05;100.00;98049.88;6245197;23;20208;-78
2022/12/14 11:28:25;;;;;;;30.20;20.77;;;;;;;1.97;100.00;98058.78;6244539;23;20215;-78
2022/12/14 11:31:03;;;;;;;30.37;19.97;;;;;;;1.88;100.00;98044.16;6245133;23;20733;-78
2022/12/14 11:33:37;;;;;;;29.50;20.63;;;;;;;1.86;100.00;98045.38;6244998;23;20290;-78
2022/12/14 11:36:05;;;;;;;29.87;20.57;;;;;;;1.97;100.00;98047.41;6244253;23;20250;-78
2022/12/14 11:38:32;;;;;;;32.67;22.83;;;;;;;2.02;100.00;98037.03;6244776;23;20292;-78
2022/12/14 11:41:01;;;;;;;26.23;20.07;;;;;;;2.15;100.00;98029.09;6244585;23;20291;-79
2022/12/14 11:43:39;;;;;;;26.67;20.53;;;;;;;2.24;100.00;98035.03;6220049;23;20679;-77
2022/12/14 11:46:06;;;;;;;28.10;21.00;;;;;;;2.36;100.00;98026.25;6244425;23;20271;-78
2022/12/14 11:48:35;;;;;;;26.17;19.50;;;;;;;2.27;100.00;98024.84;6244759;23;20208;-77